Time;durP1;ratioP1;P1;durP2;ratioP2;P2;SDS_P1;SDS_P2;PMS_P1;PMS_P2;Temp;Humidity;BMP_temperature;BMP_pressure;BME280_temperature;BME280_humidity;BME280_pressure;Samples;Min_cycle;Max_cycle;Signal;HPM_P1;HPM_P2
2022/06/05 00:00:43;;;;;;;8.00;7.30;;;;;;;25.47;47.15;95263.22;6239539;27;104060;-67
2022/06/05 00:03:55;;;;;;;7.73;6.90;;;;;;;25.50;47.07;95265.25;6238873;28;103144;-67
2022/06/05 00:07:07;;;;;;;10.20;7.40;;;;;;;25.52;47.07;95265.69;6227063;27;103989;-66
2022/06/05 00:10:14;;;;;;;7.87;7.07;;;;;;;25.48;47.22;95259.41;6238198;28;102918;-67
2022/06/05 00:13:24;;;;;;;8.00;6.97;;;;;;;25.49;47.21;95252.16;6238863;28;104398;-66
2022/06/05 00:16:30;;;;;;;8.43;7.17;;;;;;;25.50;47.23;95256.41;6238538;28;103211;-67
2022/06/05 00:19:34;;;;;;;8.43;7.63;;;;;;;25.52;47.18;95246.94;6229734;28;105851;-67
2022/06/05 00:22:38;;;;;;;8.53;7.33;;;;;;;25.52;47.33;95246.16;6236085;28;106217;-67
2022/06/05 00:25:48;;;;;;;8.97;6.90;;;;;;;25.53;47.55;95248.50;6238484;28;103233;-67
2022/06/05 00:29:00;;;;;;;8.83;8.03;;;;;;;25.62;46.83;95254.63;6228743;28;103092;-67
2022/06/05 00:32:12;;;;;;;8.23;7.43;;;;;;;25.64;47.11;95267.72;6238549;28;102887;-67
2022/06/05 00:35:17;;;;;;;7.87;7.20;;;;;;;25.65;47.37;95280.78;6235742;28;103918;-67
2022/06/05 00:38:30;;;;;;;8.40;7.50;;;;;;;25.56;47.33;95266.66;6238116;28;102767;-67
2022/06/05 00:41:55;;;;;;;7.53;6.70;;;;;;;25.47;47.14;95265.88;6226427;27;104386;-67
2022/06/05 00:45:02;;;;;;;7.57;7.03;;;;;;;25.59;46.93;95275.94;6239071;28;103761;-67
2022/06/05 00:48:08;;;;;;;10.27;7.17;;;;;;;25.49;47.34;95271.72;6235872;28;103188;-67
2022/06/05 00:51:11;;;;;;;7.80;7.10;;;;;;;25.49;47.05;95265.56;6231154;28;103352;-67
2022/06/05 00:54:14;;;;;;;7.20;6.60;;;;;;;25.41;46.69;95269.88;6231706;28;103711;-67
2022/06/05 00:57:18;;;;;;;8.53;7.40;;;;;;;25.42;47.28;95271.44;6238156;28;103548;-67
2022/06/05 01:00:24;;;;;;;8.07;7.27;;;;;;;25.35;47.08;95265.78;6238316;28;103351;-67
2022/06/05 01:03:29;;;;;;;7.30;6.60;;;;;;;25.43;46.78;95275.69;6220461;27;103172;-67
2022/06/05 01:06:32;;;;;;;8.63;7.10;;;;;;;25.38;47.02;95273.19;6213638;28;102988;-67
2022/06/05 01:09:35;;;;;;;7.90;7.20;;;;;;;25.40;47.01;95278.22;6216401;28;103108;-67
2022/06/05 01:12:47;;;;;;;9.33;6.50;;;;;;;25.39;46.59;95280.13;6236336;28;103237;-67
2022/06/05 01:15:57;;;;;;;10.30;7.03;;;;;;;25.42;46.81;95271.44;6224396;28;102802;-67
2022/06/05 01:19:16;;;;;;;7.37;6.50;;;;;;;25.31;46.90;95264.81;6235857;28;103309;-67
2022/06/05 01:23:05;;;;;;;8.80;7.03;;;;;;;25.20;47.07;95266.25;6235372;28;103784;-67
2022/06/05 01:26:25;;;;;;;6.90;6.30;;;;;;;25.23;47.07;95274.47;6216043;28;102972;-67
2022/06/05 01:29:37;;;;;;;7.77;6.33;;;;;;;25.31;46.79;95275.53;6237180;28;103235;-67
2022/06/05 01:32:44;;;;;;;8.10;6.87;;;;;;;25.26;47.00;95263.09;6236561;28;103088;-67
2022/06/05 01:35:58;;;;;;;7.23;6.63;;;;;;;25.24;46.92;95264.53;6237637;28;103075;-67
2022/06/05 01:39:07;;;;;;;10.33;7.70;;;;;;;25.34;46.92;95264.97;6228283;28;105297;-67
2022/06/05 01:42:16;;;;;;;8.70;7.80;;;;;;;25.40;46.99;95268.28;6235099;28;103176;-67
2022/06/05 01:45:23;;;;;;;7.67;7.07;;;;;;;25.46;46.74;95271.56;6237757;28;103238;-69
2022/06/05 01:48:31;;;;;;;8.63;7.23;;;;;;;25.39;46.90;95266.72;6228492;28;102773;-73
2022/06/05 01:51:39;;;;;;;7.50;6.40;;;;;;;25.26;47.23;95267.69;6236800;28;103193;-73
2022/06/05 01:54:50;;;;;;;8.27;6.50;;;;;;;25.33;47.01;95267.97;6233461;28;106301;-72
2022/06/05 01:57:59;;;;;;;9.30;7.27;;;;;;;25.43;46.96;95273.00;6215403;28;103437;-72
2022/06/05 02:01:09;;;;;;;7.83;7.10;;;;;;;25.30;47.42;95265.94;6228600;28;103221;-72
2022/06/05 02:04:16;;;;;;;8.27;7.40;;;;;;;25.42;46.90;95270.66;6237343;28;102992;-72
2022/06/05 02:07:26;;;;;;;9.27;7.80;;;;;;;25.44;47.29;95271.91;6238205;28;103144;-70
2022/06/05 02:10:35;;;;;;;7.47;6.87;;;;;;;25.36;47.20;95264.66;6231465;28;102921;-70
2022/06/05 02:13:39;;;;;;;7.87;7.20;;;;;;;25.26;47.28;95257.75;6230925;28;103245;-72
2022/06/05 02:16:44;;;;;;;7.47;6.77;;;;;;;25.30;47.47;95247.16;6237098;28;103075;-72
2022/06/05 02:19:47;;;;;;;7.70;7.10;;;;;;;25.29;47.15;95254.44;6235930;28;103016;-72
2022/06/05 02:22:52;;;;;;;8.00;7.30;;;;;;;25.27;47.10;95253.19;6227050;27;103205;-72
2022/06/05 02:25:56;;;;;;;8.13;7.23;;;;;;;25.24;47.25;95253.81;6236258;28;103113;-73
2022/06/05 02:29:02;;;;;;;8.50;7.47;;;;;;;25.26;47.38;95249.72;6236939;28;103213;-70
2022/06/05 02:32:39;;;;;;;9.00;7.60;;;;;;;25.25;47.45;95253.50;6236533;28;103574;-72
2022/06/05 02:35:52;;;;;;;8.30;7.40;;;;;;;25.23;47.64;95260.28;6225840;28;102803;-72
2022/06/05 02:39:04;;;;;;;9.00;7.30;;;;;;;25.25;47.67;95256.19;6235895;28;103091;-72
2022/06/05 02:42:17;;;;;;;8.10;7.23;;;;;;;25.26;47.78;95251.59;6237179;28;102704;-71
2022/06/05 02:45:27;;;;;;;8.47;7.60;;;;;;;25.20;47.66;95242.16;6227477;28;104430;-70
2022/06/05 02:48:36;;;;;;;8.60;7.80;;;;;;;25.12;47.97;95235.72;6237003;28;103089;-71
2022/06/05 02:51:44;;;;;;;21.83;19.83;;;;;;;25.06;48.36;95232.47;6228905;28;103189;-72
2022/06/05 02:54:52;;;;;;;10.10;9.20;;;;;;;25.03;47.95;95226.94;6236196;28;102861;-72
2022/06/05 02:57:55;;;;;;;11.80;8.90;;;;;;;25.05;48.13;95236.25;6225960;28;103497;-72
2022/06/05 03:04:16;;;;;;;22.77;20.77;;;;;;;25.10;47.96;95232.59;6210786;28;103020;-72
2022/06/05 03:07:19;;;;;;;13.13;11.93;;;;;;;25.15;47.89;95234.31;6213192;28;103765;-71
2022/06/05 03:10:23;;;;;;;11.17;10.30;;;;;;;25.26;47.54;95247.03;6222795;28;103144;-72
2022/06/05 03:13:26;;;;;;;23.40;21.20;;;;;;;25.15;48.14;95234.31;6235481;28;103261;-73
2022/06/05 03:16:31;;;;;;;15.27;13.97;;;;;;;25.21;47.88;95241.06;6232026;28;102893;-71
2022/06/05 03:19:34;;;;;;;11.50;10.40;;;;;;;25.29;47.58;95248.28;6212322;28;103625;-72
2022/06/05 03:22:37;;;;;;;11.10;10.20;;;;;;;25.29;47.62;95249.06;6235212;28;102969;-63
2022/06/05 03:25:43;;;;;;;11.13;10.03;;;;;;;25.44;47.11;95237.06;6238021;27;103124;-62
2022/06/05 03:28:46;;;;;;;9.73;8.80;;;;;;;25.52;46.73;95259.56;6238355;28;103151;-62
2022/06/05 03:31:50;;;;;;;9.67;8.83;;;;;;;25.55;47.14;95261.63;6224391;28;104626;-62
2022/06/05 03:34:54;;;;;;;12.13;8.90;;;;;;;25.54;47.03;95268.06;6238437;28;104406;-62
2022/06/05 03:37:57;;;;;;;13.13;9.23;;;;;;;25.56;47.18;95269.34;6239611;28;103032;-62
2022/06/05 03:41:00;;;;;;;8.87;8.00;;;;;;;25.36;47.68;95256.63;6233467;28;103270;-63
2022/06/05 03:44:04;;;;;;;8.37;7.53;;;;;;;25.40;47.75;95262.94;6234237;28;103994;-62
2022/06/05 03:47:09;;;;;;;8.53;7.73;;;;;;;25.52;46.77;95264.91;6239387;28;103003;-63
2022/06/05 03:50:14;;;;;;;13.83;11.07;;;;;;;25.54;47.08;95266.19;6237873;28;103103;-63
2022/06/05 03:53:17;;;;;;;14.83;13.53;;;;;;;25.55;47.59;95275.00;6227680;27;104912;-63
2022/06/05 03:56:22;;;;;;;11.63;10.30;;;;;;;25.60;47.07;95270.25;6222772;28;104391;-62
2022/06/05 03:59:25;;;;;;;10.40;9.47;;;;;;;25.62;47.37;95278.75;6232693;27;103104;-62
2022/06/05 04:02:31;;;;;;;9.63;8.80;;;;;;;25.42;48.04;95276.00;6236463;28;104258;-62
2022/06/05 04:05:34;;;;;;;9.30;8.27;;;;;;;25.28;48.09;95270.81;6226933;27;105943;-61
2022/06/05 04:08:39;;;;;;;10.27;9.30;;;;;;;25.50;49.60;95270.59;6236783;28;102955;-62
2022/06/05 04:11:42;;;;;;;12.97;11.77;;;;;;;25.43;48.85;95269.53;6236332;28;102989;-63
2022/06/05 04:14:45;;;;;;;16.10;10.23;;;;;;;25.41;49.10;95269.88;6237559;28;103242;-65
2022/06/05 04:17:49;;;;;;;15.10;13.80;;;;;;;25.52;50.64;95276.41;6228394;28;103154;-63
2022/06/05 04:20:53;;;;;;;31.70;28.70;;;;;;;25.62;50.35;95281.44;6234637;28;103415;-64
2022/06/05 04:23:57;;;;;;;20.90;17.53;;;;;;;25.65;48.93;95277.31;6221935;27;102889;-63
2022/06/05 04:27:00;;;;;;;18.47;16.43;;;;;;;25.71;50.04;95270.69;6231850;27;103274;-63
2022/06/05 04:30:04;;;;;;;17.50;16.00;;;;;;;25.81;50.36;95266.84;6214145;27;102920;-63
2022/06/05 04:33:08;;;;;;;21.37;19.27;;;;;;;25.90;49.76;95259.53;6219654;27;103388;-62
2022/06/05 04:36:11;;;;;;;18.53;16.63;;;;;;;25.93;49.86;95272.28;6217263;28;103942;-61
2022/06/05 04:39:15;;;;;;;18.03;16.40;;;;;;;25.96;49.16;95271.63;6208111;28;103068;-64
2022/06/05 04:42:18;;;;;;;16.37;14.23;;;;;;;25.82;49.11;95260.34;6222111;27;103721;-63
2022/06/05 04:45:21;;;;;;;16.57;13.60;;;;;;;25.84;49.01;95263.50;6233313;27;103189;-65
2022/06/05 04:48:26;;;;;;;15.60;14.07;;;;;;;25.86;49.40;95258.59;6216696;27;104534;-63
2022/06/05 04:51:29;;;;;;;11.87;10.80;;;;;;;25.74;49.33;95258.53;6223408;28;104840;-63
2022/06/05 04:54:32;;;;;;;13.00;11.70;;;;;;;25.71;49.07;95259.16;6240561;28;103205;-62
2022/06/05 04:57:36;;;;;;;10.97;9.97;;;;;;;23.79;54.08;95249.75;6240765;28;103167;-62
2022/06/05 05:00:40;;;;;;;12.93;10.43;;;;;;;23.02;56.61;95252.91;6235268;28;102987;-62
2022/06/05 05:03:45;;;;;;;10.97;9.97;;;;;;;23.92;53.54;95260.63;6234988;28;103333;-62
2022/06/05 05:06:48;;;;;;;11.40;9.70;;;;;;;24.49;52.14;95250.63;6240531;28;103958;-62
2022/06/05 05:09:52;;;;;;;16.23;9.47;;;;;;;24.77;51.95;95267.16;6240960;28;104108;-62
2022/06/05 05:12:55;;;;;;;14.23;10.13;;;;;;;24.77;51.75;95264.47;6230043;27;104070;-62
2022/06/05 05:15:58;;;;;;;13.00;9.40;;;;;;;25.03;50.85;95267.91;6240121;28;103221;-63
2022/06/05 05:19:03;;;;;;;14.03;8.90;;;;;;;25.24;50.49;95269.91;6240168;28;102994;-64
2022/06/05 05:22:07;;;;;;;12.00;9.70;;;;;;;25.34;50.46;95270.31;6240151;28;103337;-63
2022/06/05 05:25:12;;;;;;;13.83;9.40;;;;;;;25.38;51.40;95270.50;6230615;28;104340;-64
2022/06/05 05:28:16;;;;;;;16.00;10.03;;;;;;;24.90;52.26;95276.91;6240798;28;104201;-65
2022/06/05 05:31:21;;;;;;;17.87;10.10;;;;;;;24.62;53.21;95278.31;6239402;28;103162;-64
2022/06/05 05:34:26;;;;;;;14.90;9.93;;;;;;;25.04;52.08;95284.75;6238549;28;102956;-63
2022/06/05 05:37:29;;;;;;;12.53;9.30;;;;;;;25.24;51.58;95283.28;6217107;28;103141;-63
2022/06/05 05:43:52;;;;;;;15.33;10.60;;;;;;;25.60;50.38;95282.88;6239128;28;103019;-64
2022/06/05 05:46:56;;;;;;;17.27;11.97;;;;;;;25.61;50.79;95279.88;6230800;28;102937;-63
2022/06/05 05:50:02;;;;;;;13.30;9.70;;;;;;;25.73;50.23;95278.41;6238416;28;103401;-64
2022/06/05 05:53:05;;;;;;;11.00;9.10;;;;;;;25.89;50.30;95288.25;6239854;28;102798;-63
2022/06/05 05:56:11;;;;;;;12.17;9.30;;;;;;;26.01;50.54;95287.56;6240225;28;103487;-63
2022/06/05 05:59:15;;;;;;;12.67;9.90;;;;;;;26.08;51.02;95281.69;6229191;27;102925;-63
2022/06/05 06:02:21;;;;;;;10.87;9.00;;;;;;;26.13;51.06;95284.19;6239654;28;102972;-65
2022/06/05 06:05:26;;;;;;;17.23;9.10;;;;;;;26.21;50.86;95284.13;6239734;28;103285;-63
2022/06/05 06:08:31;;;;;;;14.73;9.63;;;;;;;26.28;50.89;95284.41;6238246;28;102886;-63
2022/06/05 06:11:34;;;;;;;10.93;9.20;;;;;;;26.33;50.95;95286.09;6233626;28;103203;-64
2022/06/05 06:14:40;;;;;;;13.73;9.60;;;;;;;26.37;50.94;95283.53;6247945;28;103169;-63
2022/06/05 06:17:45;;;;;;;13.43;9.37;;;;;;;26.41;51.11;95292.53;6253603;28;102762;-65
2022/06/05 06:20:53;;;;;;;14.47;10.37;;;;;;;26.47;51.02;95293.88;6231919;28;102673;-63
2022/06/05 06:23:58;;;;;;;12.80;9.60;;;;;;;26.52;51.36;95288.31;6228387;28;102561;-64
2022/06/05 06:27:04;;;;;;;10.80;9.30;;;;;;;26.55;51.49;95296.50;6229686;28;102768;-65
2022/06/05 06:30:09;;;;;;;14.27;9.27;;;;;;;26.62;50.75;95282.56;6228020;28;102625;-64
2022/06/05 06:33:14;;;;;;;10.80;9.73;;;;;;;26.66;50.73;95288.84;6222517;28;103166;-63
2022/06/05 06:36:21;;;;;;;12.10;9.30;;;;;;;26.73;50.60;95286.44;6242582;28;103772;-66
2022/06/05 06:39:47;;;;;;;11.40;9.20;;;;;;;26.74;50.88;95277.28;6254201;28;102654;-64
2022/06/05 06:42:56;;;;;;;11.93;10.73;;;;;;;26.76;50.74;95268.88;6249686;27;102627;-67
2022/06/05 06:46:02;;;;;;;11.67;10.57;;;;;;;26.81;50.34;95276.72;6248401;28;103004;-65
2022/06/05 06:49:07;;;;;;;11.50;9.70;;;;;;;26.84;50.17;95273.38;6254751;28;102882;-66
2022/06/05 06:52:13;;;;;;;12.10;10.80;;;;;;;26.85;50.75;95275.72;6253264;28;102719;-62
2022/06/05 06:55:21;;;;;;;12.20;9.77;;;;;;;26.89;50.94;95275.09;6246813;27;103334;-64
2022/06/05 06:58:28;;;;;;;14.67;10.00;;;;;;;26.88;50.57;95266.22;6249862;28;102660;-64
2022/06/05 07:01:57;;;;;;;11.43;10.10;;;;;;;26.90;50.45;95269.38;6256973;28;102889;-63
2022/06/05 07:05:19;;;;;;;10.97;9.87;;;;;;;26.90;50.16;95264.00;6259501;28;103297;-64
2022/06/05 07:08:30;;;;;;;12.00;10.20;;;;;;;26.90;50.56;95265.91;6253426;28;102724;-63
2022/06/05 07:11:40;;;;;;;10.80;9.80;;;;;;;26.94;50.58;95264.13;6256927;28;103123;-63
2022/06/05 07:14:44;;;;;;;13.37;11.67;;;;;;;26.72;50.23;95265.31;6256944;28;103083;-64
2022/06/05 07:17:50;;;;;;;13.27;11.00;;;;;;;26.73;50.32;95261.50;6249132;27;102795;-64
2022/06/05 07:20:57;;;;;;;12.07;10.93;;;;;;;26.88;49.66;95260.84;6255970;28;103065;-63
2022/06/05 07:24:05;;;;;;;12.80;11.30;;;;;;;26.94;50.38;95266.81;6257118;28;102451;-64
2022/06/05 07:27:13;;;;;;;13.17;11.70;;;;;;;26.97;50.65;95258.09;6256721;28;102461;-64
2022/06/05 07:30:19;;;;;;;13.37;11.93;;;;;;;26.96;51.25;95267.28;6247706;27;103796;-64
2022/06/05 07:33:25;;;;;;;13.30;12.03;;;;;;;27.05;51.39;95257.19;6256657;28;103052;-65
2022/06/05 07:36:31;;;;;;;13.37;12.07;;;;;;;27.12;50.84;95249.41;6256446;28;102787;-64
2022/06/05 07:39:40;;;;;;;16.63;12.53;;;;;;;27.16;51.16;95244.94;6251409;27;102727;-63
2022/06/05 07:42:47;;;;;;;13.37;12.17;;;;;;;27.22;50.95;95246.28;6255762;28;102412;-65
2022/06/05 07:45:56;;;;;;;12.47;11.27;;;;;;;27.24;52.16;95246.75;6251392;28;102619;-61
2022/06/05 07:49:04;;;;;;;12.07;10.97;;;;;;;27.19;51.39;95246.94;6227538;28;102891;-60
2022/06/05 07:55:38;;;;;;;11.10;10.00;;;;;;;27.27;49.89;95232.66;6220428;28;102808;-60
2022/06/05 07:58:43;;;;;;;11.13;10.03;;;;;;;27.26;49.91;95233.00;6226865;28;102747;-60
2022/06/05 08:01:49;;;;;;;12.23;11.07;;;;;;;27.20;49.11;95221.63;6223236;28;103238;-64
2022/06/05 08:04:56;;;;;;;10.70;9.63;;;;;;;27.22;49.34;95222.13;6224149;28;102759;-64
2022/06/05 08:08:03;;;;;;;10.00;9.10;;;;;;;27.24;48.63;95219.88;6229586;28;103058;-65
2022/06/05 08:11:11;;;;;;;9.40;8.50;;;;;;;27.20;48.10;95221.63;6227941;28;102625;-64
2022/06/05 08:14:18;;;;;;;10.07;9.27;;;;;;;27.24;48.23;95230.63;6219832;28;103263;-64
2022/06/05 08:17:27;;;;;;;10.43;9.47;;;;;;;27.25;47.37;95229.50;6230423;28;102542;-65
2022/06/05 08:20:32;;;;;;;9.60;8.80;;;;;;;27.22;47.17;95224.00;6229559;28;102945;-64
2022/06/05 08:23:39;;;;;;;8.70;8.00;;;;;;;27.18;47.17;95226.56;6229459;28;103314;-64
2022/06/05 08:26:46;;;;;;;8.80;8.00;;;;;;;27.22;47.20;95224.81;6217104;28;102953;-64
2022/06/05 08:29:50;;;;;;;9.33;8.50;;;;;;;27.19;47.21;95220.06;6228430;28;102974;-65
2022/06/05 08:32:55;;;;;;;10.50;8.43;;;;;;;27.22;47.26;95216.75;6230078;28;105476;-64
2022/06/05 08:36:02;;;;;;;9.20;8.40;;;;;;;27.26;47.60;95214.97;6226523;28;103039;-62
2022/06/05 08:42:47;;;;;;;11.67;8.40;;;;;;;27.25;47.42;95220.66;6225967;28;102831;-60
2022/06/05 08:46:00;;;;;;;9.97;7.70;;;;;;;27.26;47.29;95217.66;6224086;28;102490;-61
2022/06/05 08:49:11;;;;;;;9.20;8.50;;;;;;;27.28;47.00;95215.41;6219182;28;102786;-65
2022/06/05 08:52:27;;;;;;;8.30;7.60;;;;;;;27.27;46.64;95219.22;6228576;28;104603;-64
2022/06/05 08:55:36;;;;;;;8.40;7.80;;;;;;;27.31;46.71;95213.97;6228381;28;102543;-63
2022/06/05 08:58:49;;;;;;;8.37;7.00;;;;;;;27.18;46.65;95218.50;6221851;28;103887;-64
2022/06/05 09:01:58;;;;;;;8.57;7.87;;;;;;;27.10;46.53;95222.09;6223295;28;103051;-65
2022/06/05 09:05:06;;;;;;;8.00;7.43;;;;;;;27.14;46.37;95215.72;6237716;28;103503;-65
2022/06/05 09:08:13;;;;;;;10.67;7.53;;;;;;;27.18;45.88;95211.22;6239808;28;102947;-65
2022/06/05 09:11:27;;;;;;;10.30;8.47;;;;;;;27.19;45.55;95209.31;6228630;28;105416;-64
2022/06/05 09:14:39;;;;;;;8.27;7.47;;;;;;;27.21;46.20;95203.59;6239360;28;102910;-64
2022/06/05 09:17:51;;;;;;;8.73;7.83;;;;;;;27.21;46.63;95203.59;6239537;28;103432;-65
2022/06/05 09:20:56;;;;;;;10.83;8.10;;;;;;;27.25;47.06;95202.63;6236958;28;103190;-64
2022/06/05 09:24:06;;;;;;;10.50;7.60;;;;;;;27.27;47.10;95196.94;6232855;28;104517;-66
2022/06/05 09:27:21;;;;;;;8.40;7.57;;;;;;;27.27;48.20;95202.31;6238268;28;103166;-65
2022/06/05 09:30:32;;;;;;;7.80;7.10;;;;;;;27.24;47.87;95192.22;6237997;28;103272;-65
2022/06/05 09:33:39;;;;;;;7.90;7.20;;;;;;;27.28;47.90;95195.81;6227801;28;103294;-65
2022/06/05 09:36:49;;;;;;;7.30;6.60;;;;;;;27.30;48.16;95194.38;6238339;28;103048;-64
2022/06/05 09:39:56;;;;;;;9.03;6.60;;;;;;;27.29;47.72;95189.31;6238969;28;103243;-63
2022/06/05 09:43:26;;;;;;;9.57;6.33;;;;;;;27.26;46.71;95182.72;6238426;28;103192;-65
2022/06/05 09:46:52;;;;;;;9.30;6.30;;;;;;;27.19;46.89;95179.75;6231193;28;103177;-65
2022/06/05 09:49:59;;;;;;;9.23;6.20;;;;;;;27.14;46.26;95185.38;6238239;28;103255;-66
2022/06/05 09:53:02;;;;;;;7.20;6.40;;;;;;;27.21;45.67;95177.53;6238903;28;103243;-65
2022/06/05 09:56:17;;;;;;;7.90;6.00;;;;;;;27.22;45.01;95179.13;6227749;28;103090;-65
2022/06/05 09:59:25;;;;;;;6.70;6.10;;;;;;;27.21;44.99;95182.13;6238163;28;103037;-65
2022/06/05 10:02:30;;;;;;;7.33;5.90;;;;;;;27.17;44.98;95176.63;6237631;28;103325;-65
2022/06/05 10:05:36;;;;;;;6.57;6.00;;;;;;;27.15;45.16;95179.66;6237948;28;103242;-65
2022/06/05 10:08:43;;;;;;;6.90;6.27;;;;;;;27.16;44.96;95175.84;6227812;28;103032;-65
2022/06/05 10:11:53;;;;;;;6.37;5.87;;;;;;;27.17;44.51;95179.31;6237715;28;104180;-66
2022/06/05 10:15:01;;;;;;;6.90;5.50;;;;;;;27.20;45.27;95175.97;6238158;28;103028;-67
2022/06/05 10:18:15;;;;;;;6.73;6.10;;;;;;;27.21;45.29;95171.38;6228747;28;106058;-67
2022/06/05 10:21:23;;;;;;;8.60;5.80;;;;;;;27.20;44.87;95162.53;6242987;28;103003;-64
2022/06/05 10:24:38;;;;;;;6.90;6.30;;;;;;;27.20;45.21;95159.84;6225697;28;102798;-66
2022/06/05 10:27:51;;;;;;;6.60;6.03;;;;;;;27.18;45.72;95154.03;6225455;28;103199;-66
2022/06/05 10:30:59;;;;;;;7.80;6.80;;;;;;;27.18;44.74;95152.13;6218288;28;103152;-63
2022/06/05 10:34:19;;;;;;;11.40;5.90;;;;;;;27.12;44.47;95153.47;6228437;28;103161;-63
2022/06/05 10:37:30;;;;;;;6.67;5.90;;;;;;;27.12;45.11;95150.00;6230426;28;103086;-65
2022/06/05 10:40:48;;;;;;;7.13;6.40;;;;;;;27.23;44.93;95143.06;6225382;28;102979;-62
2022/06/05 10:44:21;;;;;;;6.87;6.17;;;;;;;27.17;43.78;95139.81;6229460;28;103020;-63
2022/06/05 10:47:38;;;;;;;6.50;5.87;;;;;;;27.07;44.22;95132.19;6228916;28;105609;-64
2022/06/05 10:50:53;;;;;;;6.67;6.03;;;;;;;27.07;43.65;95126.06;6225758;28;102502;-64
2022/06/05 10:54:08;;;;;;;6.70;6.20;;;;;;;27.04;43.66;95124.78;6215867;28;105102;-60
2022/06/05 10:57:18;;;;;;;7.27;6.60;;;;;;;27.01;44.06;95122.00;6236062;28;102719;-58
2022/06/05 11:00:27;;;;;;;6.53;6.00;;;;;;;27.07;43.69;95116.09;6248952;28;102791;-59
2022/06/05 11:03:40;;;;;;;6.93;6.27;;;;;;;27.07;43.22;95120.69;6238129;28;103021;-62
2022/06/05 11:06:53;;;;;;;6.67;6.07;;;;;;;27.06;43.61;95121.78;6246094;28;102926;-64
2022/06/05 11:10:08;;;;;;;6.40;5.90;;;;;;;27.01;43.11;95111.25;6247753;28;103028;-59
2022/06/05 11:16:52;;;;;;;8.27;5.67;;;;;;;27.07;43.31;95108.03;6240975;27;102645;-59
2022/06/05 11:20:08;;;;;;;6.10;5.60;;;;;;;27.09;43.30;95121.91;6248213;28;102795;-61
2022/06/05 11:23:22;;;;;;;6.90;6.30;;;;;;;27.06;42.78;95116.44;6249109;28;102741;-60
2022/06/05 11:26:38;;;;;;;6.63;6.00;;;;;;;27.07;43.27;95102.66;6241455;28;102815;-64
2022/06/05 11:29:56;;;;;;;6.63;6.10;;;;;;;27.09;43.42;95100.41;6250799;28;103559;-64
2022/06/05 11:33:12;;;;;;;6.50;6.00;;;;;;;27.02;43.66;95113.59;6249609;28;102659;-65
2022/06/05 11:36:23;;;;;;;6.87;6.27;;;;;;;27.06;42.78;95105.69;6251229;28;102622;-65
2022/06/05 11:39:39;;;;;;;6.43;5.90;;;;;;;27.03;43.00;95109.00;6239490;28;103243;-64
2022/06/05 11:42:51;;;;;;;5.97;5.37;;;;;;;27.04;42.80;95102.53;6250131;28;102449;-64
2022/06/05 11:46:05;;;;;;;5.83;5.23;;;;;;;27.09;43.07;95102.31;6251241;27;103012;-64
2022/06/05 11:49:16;;;;;;;6.97;6.20;;;;;;;27.09;43.30;95097.72;6243553;27;102848;-68
2022/06/05 11:52:31;;;;;;;5.37;4.97;;;;;;;27.06;42.27;95095.72;6254751;28;102510;-65
2022/06/05 11:55:47;;;;;;;5.83;5.33;;;;;;;27.07;42.54;95093.81;6254204;28;102831;-65
2022/06/05 11:59:01;;;;;;;5.77;5.27;;;;;;;27.07;43.22;95097.28;6253468;28;102696;-64
2022/06/05 12:02:36;;;;;;;5.83;5.20;;;;;;;27.07;42.29;95091.91;6247924;27;102951;-64
2022/06/05 12:05:51;;;;;;;7.43;5.50;;;;;;;27.07;42.41;95086.53;6247977;28;102637;-62
2022/06/05 12:09:01;;;;;;;6.43;5.50;;;;;;;27.07;42.98;95089.22;6241326;28;102560;-63
2022/06/05 12:12:13;;;;;;;6.20;4.47;;;;;;;27.08;42.74;95096.16;6234476;27;102824;-67
2022/06/05 12:15:26;;;;;;;5.70;4.47;;;;;;;27.08;42.60;95084.63;6258227;28;102568;-62
2022/06/05 12:18:39;;;;;;;5.70;4.73;;;;;;;27.08;42.11;95084.63;6257698;28;102505;-62
2022/06/05 12:21:57;;;;;;;5.53;5.00;;;;;;;27.06;42.20;95078.81;6256871;28;103459;-62
2022/06/05 12:25:14;;;;;;;5.90;5.40;;;;;;;27.08;42.28;95084.63;6253240;28;103381;-63
2022/06/05 12:28:28;;;;;;;6.07;5.40;;;;;;;27.09;42.69;95076.22;6257133;28;102637;-64
2022/06/05 12:31:38;;;;;;;5.90;5.30;;;;;;;27.10;42.89;95068.97;6256691;28;102727;-63
2022/06/05 12:34:47;;;;;;;7.10;5.50;;;;;;;27.10;42.41;95068.97;6248940;28;102785;-63
2022/06/05 12:38:14;;;;;;;5.83;5.27;;;;;;;27.09;42.40;95072.75;6257402;28;102807;-62
2022/06/05 12:41:23;;;;;;;6.77;4.93;;;;;;;27.10;42.26;95067.06;6257201;28;102691;-63
2022/06/05 12:44:45;;;;;;;5.97;5.37;;;;;;;27.12;42.36;95056.75;6256108;27;103018;-65
2022/06/05 12:48:06;;;;;;;7.23;5.10;;;;;;;27.11;42.91;95055.19;6251188;28;102846;-64
2022/06/05 12:51:19;;;;;;;8.03;5.50;;;;;;;27.14;42.62;95049.13;6256755;28;102640;-63
2022/06/05 12:54:37;;;;;;;7.10;5.87;;;;;;;27.11;43.19;95039.06;6257805;28;102766;-62
2022/06/05 12:58:07;;;;;;;5.93;5.27;;;;;;;27.11;43.22;95051.72;6250039;28;102704;-63
2022/06/05 13:01:20;;;;;;;6.90;5.40;;;;;;;27.14;43.21;95053.72;6244578;28;103097;-63
2022/06/05 13:04:44;;;;;;;6.10;5.50;;;;;;;27.11;42.51;95049.81;6231654;28;102599;-63
2022/06/05 13:07:55;;;;;;;5.97;5.43;;;;;;;27.08;42.34;95047.03;6227266;28;103387;-61
2022/06/05 13:11:09;;;;;;;6.07;5.60;;;;;;;27.10;42.98;95050.94;6227463;28;103010;-64
2022/06/05 13:14:34;;;;;;;7.73;7.03;;;;;;;27.10;43.49;95052.84;6226947;28;102788;-66
2022/06/05 13:17:46;;;;;;;9.70;8.57;;;;;;;27.09;43.06;95048.59;6226345;28;104019;-66
2022/06/05 13:21:05;;;;;;;9.37;8.43;;;;;;;27.08;43.40;95039.75;6217204;28;102658;-66
2022/06/05 13:24:17;;;;;;;8.60;7.67;;;;;;;27.11;43.19;95040.97;6227586;28;103826;-64
2022/06/05 13:27:30;;;;;;;11.40;10.27;;;;;;;27.12;43.11;95045.22;6227290;28;102986;-65
2022/06/05 13:30:44;;;;;;;10.60;9.70;;;;;;;27.10;42.89;95034.03;6229581;28;106286;-63
2022/06/05 13:33:56;;;;;;;12.13;11.13;;;;;;;27.11;42.51;95027.53;6251202;28;102610;-68
2022/06/05 13:37:08;;;;;;;11.83;10.93;;;;;;;27.11;42.55;95038.28;6252398;28;102790;-66
2022/06/05 13:40:16;;;;;;;13.30;12.20;;;;;;;27.11;42.44;95038.28;6251654;28;102906;-66
2022/06/05 13:43:25;;;;;;;13.10;11.87;;;;;;;27.08;42.23;95022.84;6243502;27;102798;-64
2022/06/05 13:46:34;;;;;;;11.50;10.40;;;;;;;27.10;42.36;95032.13;6249391;28;102572;-63
2022/06/05 13:49:49;;;;;;;10.83;10.03;;;;;;;27.11;41.90;95035.59;6247808;28;102689;-63
2022/06/05 13:52:54;;;;;;;11.27;10.37;;;;;;;27.17;41.96;95031.53;6243519;28;103318;-62
2022/06/05 13:56:05;;;;;;;9.73;8.93;;;;;;;27.22;41.53;95031.34;6242958;28;103996;-62
2022/06/05 13:59:17;;;;;;;9.40;8.60;;;;;;;27.24;40.93;95025.63;6247028;28;103049;-62
2022/06/05 14:02:34;;;;;;;8.63;7.73;;;;;;;27.24;40.52;95020.25;6225237;28;103662;-62
2022/06/05 14:05:52;;;;;;;10.97;8.00;;;;;;;27.24;41.17;95025.63;6214006;28;102720;-62
2022/06/05 14:08:59;;;;;;;9.30;7.30;;;;;;;27.28;41.24;95019.25;6226231;28;102498;-61
2022/06/05 14:12:03;;;;;;;9.80;7.83;;;;;;;27.28;41.17;95008.50;6246117;28;102996;-62
2022/06/05 14:15:14;;;;;;;9.00;8.20;;;;;;;27.27;40.40;95009.63;6246642;28;102642;-64
2022/06/05 14:18:24;;;;;;;8.33;6.90;;;;;;;27.30;39.47;95008.16;6241430;28;103049;-68
2022/06/05 14:21:32;;;;;;;10.50;7.07;;;;;;;27.28;40.11;94988.91;6245957;28;103027;-63
2022/06/05 14:24:57;;;;;;;5.77;5.37;;;;;;;27.25;39.37;94998.41;6247729;28;102550;-63
2022/06/05 14:28:06;;;;;;;5.50;5.07;;;;;;;27.20;38.93;94987.88;6239275;28;102806;-63
2022/06/05 14:31:13;;;;;;;12.83;5.60;;;;;;;27.17;39.60;94994.72;6247963;28;103116;-63
2022/06/05 14:34:21;;;;;;;5.80;5.30;;;;;;;27.16;39.44;94995.06;6228990;28;102775;-64
2022/06/05 14:37:30;;;;;;;7.00;5.30;;;;;;;27.16;39.42;94987.00;6223451;28;102863;-63
2022/06/05 14:40:45;;;;;;;5.50;4.77;;;;;;;27.19;39.67;94986.31;6214487;28;103513;-63
2022/06/05 14:43:53;;;;;;;4.83;4.53;;;;;;;27.18;39.29;94985.53;6223682;28;106193;-63
2022/06/05 14:47:02;;;;;;;5.00;4.60;;;;;;;27.18;39.11;94974.78;6232602;28;102785;-63
2022/06/05 14:50:14;;;;;;;5.10;4.60;;;;;;;27.20;39.21;94971.75;6236818;28;103974;-62